Time;durP1;ratioP1;P1;durP2;ratioP2;P2;SDS_P1;SDS_P2;PMS_P1;PMS_P2;Temp;Humidity;BMP_temperature;BMP_pressure;BME280_temperature;BME280_humidity;BME280_pressure;Samples;Min_cycle;Max_cycle;Signal;HPM_P1;HPM_P2
2022/03/28 00:00:14;;;;;;;12.60;7.57;;;;;;;10.53;39.21;102480.91;5014771;28;20033;-88
2022/03/28 00:02:41;;;;;;;12.60;8.00;;;;;;;10.58;39.57;102487.69;5031754;28;20387;-88
2022/03/28 00:05:11;;;;;;;15.50;7.95;;;;;;;10.47;39.22;102473.25;5015059;28;20029;-87
2022/03/28 00:07:37;;;;;;;19.45;7.97;;;;;;;10.60;39.32;102485.91;5014756;28;20076;-87
2022/03/28 00:10:03;;;;;;;11.52;7.63;;;;;;;10.55;39.06;102487.75;5031071;28;20116;-86
2022/03/28 00:12:28;;;;;;;19.45;8.35;;;;;;;10.53;39.61;102492.13;5014494;28;20081;-87
2022/03/28 00:14:54;;;;;;;13.27;8.20;;;;;;;10.47;39.90;102492.22;5014375;28;20103;-87
2022/03/28 00:17:19;;;;;;;11.27;7.93;;;;;;;10.33;40.06;102473.53;5047589;28;20048;-88
2022/03/28 00:19:45;;;;;;;11.13;7.63;;;;;;;10.48;40.07;102488.75;5031117;28;20518;-86
2022/03/28 00:22:10;;;;;;;18.98;9.00;;;;;;;10.24;40.23;102464.19;5031185;28;20083;-89
2022/03/28 00:24:36;;;;;;;16.20;8.52;;;;;;;10.50;39.68;102496.47;5031105;28;20489;-87
2022/03/28 00:27:02;;;;;;;13.50;8.00;;;;;;;10.41;40.42;102486.28;5030914;28;20044;-86
2022/03/28 00:29:27;;;;;;;17.77;9.43;;;;;;;10.37;39.26;102495.88;5030783;28;20125;-87
2022/03/28 00:31:53;;;;;;;13.55;8.63;;;;;;;10.15;39.55;102474.69;5014039;28;20036;-87
2022/03/28 00:34:21;;;;;;;13.13;7.97;;;;;;;9.91;39.57;102456.97;5030242;28;20063;-86
2022/03/28 00:36:48;;;;;;;11.45;7.22;;;;;;;10.04;39.64;102497.28;5030815;28;20040;-87
2022/03/28 00:39:16;;;;;;;11.80;8.10;;;;;;;10.01;39.78;102502.50;5014284;28;20018;-87
2022/03/28 00:41:42;;;;;;;12.95;7.68;;;;;;;9.96;39.78;102500.00;5014512;28;20514;-87
2022/03/28 00:44:07;;;;;;;14.93;8.07;;;;;;;9.83;40.17;102495.03;5030099;28;20120;-88
2022/03/28 00:46:34;;;;;;;13.20;8.15;;;;;;;9.75;40.24;102495.19;5014021;28;20037;-87
2022/03/28 00:49:00;;;;;;;14.63;8.55;;;;;;;9.74;39.78;102499.50;5014131;28;20048;-87
2022/03/28 00:51:25;;;;;;;12.77;8.10;;;;;;;9.64;40.15;102491.91;5030672;28;20483;-86
2022/03/28 00:53:51;;;;;;;14.50;8.40;;;;;;;9.47;40.30;102485.25;5014074;28;20060;-88
2022/03/28 00:56:16;;;;;;;15.52;8.80;;;;;;;9.62;40.57;102501.38;5030537;28;20457;-86
2022/03/28 00:58:42;;;;;;;13.52;8.65;;;;;;;9.55;41.23;102507.53;5030137;28;20178;-86
2022/03/28 01:01:09;;;;;;;14.30;8.02;;;;;;;9.57;41.00;102511.81;5030123;28;20029;-87
2022/03/28 01:03:36;;;;;;;14.18;8.30;;;;;;;9.35;41.09;102487.16;5030350;28;20025;-86
2022/03/28 01:06:01;;;;;;;13.43;9.48;;;;;;;9.44;40.70;102516.31;5030260;28;20040;-85
2022/03/28 01:08:27;;;;;;;14.88;9.23;;;;;;;9.42;40.82;102510.28;5030279;28;20026;-86
2022/03/28 01:10:53;;;;;;;15.45;8.85;;;;;;;9.30;40.65;102497.53;5030158;28;20040;-86
2022/03/28 01:13:19;;;;;;;16.92;9.45;;;;;;;9.35;40.79;102520.75;5013270;28;20046;-87
2022/03/28 01:15:44;;;;;;;16.42;8.98;;;;;;;9.30;41.60;102525.97;5013633;28;20077;-86
2022/03/28 01:18:11;;;;;;;13.50;8.95;;;;;;;9.18;41.60;102513.22;5013597;28;20025;-87
2022/03/28 01:20:39;;;;;;;16.58;9.07;;;;;;;9.04;41.39;102509.94;5013758;28;20518;-88
2022/03/28 01:23:05;;;;;;;14.77;8.77;;;;;;;9.10;41.85;102528.78;5029998;28;20495;-87
2022/03/28 01:25:31;;;;;;;15.48;9.15;;;;;;;9.16;41.43;102526.16;5030276;28;20040;-88
2022/03/28 01:27:58;;;;;;;14.98;8.90;;;;;;;9.11;41.78;102524.50;5029576;28;20029;-87
2022/03/28 01:30:25;;;;;;;13.75;8.68;;;;;;;8.93;41.96;102529.88;5029934;28;20030;-86
2022/03/28 01:32:51;;;;;;;14.90;8.85;;;;;;;8.71;42.11;102501.72;5046035;28;20067;-88
2022/03/28 01:35:36;;;;;;;16.48;9.43;;;;;;;8.88;42.50;102550.59;5013521;28;20037;-88
2022/03/28 01:38:03;;;;;;;14.20;8.23;;;;;;;8.80;42.43;102542.06;5029724;28;20402;-86
2022/03/28 01:40:29;;;;;;;14.40;8.18;;;;;;;8.76;42.54;102522.34;5013198;28;20056;-87
2022/03/28 01:42:55;;;;;;;14.15;8.40;;;;;;;8.82;42.43;102541.16;5029441;28;20483;-86
2022/03/28 01:45:21;;;;;;;14.95;8.70;;;;;;;8.74;42.76;102547.28;5028526;28;20040;-88
2022/03/28 01:47:46;;;;;;;13.80;8.77;;;;;;;8.69;42.57;102546.50;5029324;28;20071;-86
2022/03/28 01:50:12;;;;;;;14.35;8.73;;;;;;;8.64;42.57;102536.19;5029625;28;20026;-86
2022/03/28 01:52:38;;;;;;;14.77;8.45;;;;;;;8.57;42.44;102548.34;5013109;28;20026;-87
2022/03/28 01:55:04;;;;;;;14.82;9.40;;;;;;;8.52;42.42;102531.19;5029257;28;20041;-86
2022/03/28 01:57:30;;;;;;;16.85;9.68;;;;;;;8.63;42.59;102550.84;5012962;28;20033;-88
2022/03/28 01:59:55;;;;;;;13.27;8.75;;;;;;;8.65;42.24;102547.38;5029811;28;20479;-87
2022/03/28 02:02:21;;;;;;;14.75;9.77;;;;;;;8.60;42.48;102552.59;5013039;28;20053;-87
2022/03/28 02:04:47;;;;;;;16.00;9.35;;;;;;;8.58;42.62;102557.78;5012956;28;20475;-87
2022/03/28 02:07:12;;;;;;;18.50;9.85;;;;;;;8.45;42.98;102521.78;5029110;28;20488;-87
2022/03/28 02:09:37;;;;;;;17.45;9.65;;;;;;;8.33;43.27;102526.16;5029030;28;20109;-86
2022/03/28 02:12:03;;;;;;;19.90;10.23;;;;;;;8.48;43.52;102545.84;5029129;28;20491;-86
2022/03/28 02:14:29;;;;;;;18.08;9.93;;;;;;;8.43;43.64;102545.00;5029297;28;20025;-86
2022/03/28 02:16:54;;;;;;;16.33;9.75;;;;;;;8.27;43.58;102509.91;5029494;28;20052;-86
2022/03/28 02:19:20;;;;;;;18.00;10.25;;;;;;;8.39;44.15;102534.75;5030292;28;20073;-86
2022/03/28 02:21:45;;;;;;;17.15;10.32;;;;;;;8.38;43.88;102545.94;5029339;28;20029;-87
2022/03/28 02:24:11;;;;;;;18.60;9.48;;;;;;;8.40;43.53;102557.94;4996204;28;20565;-88
2022/03/28 02:26:36;;;;;;;16.77;9.30;;;;;;;8.27;44.12;102541.72;5028962;28;20034;-87
2022/03/28 02:29:02;;;;;;;15.63;9.50;;;;;;;8.32;44.45;102555.41;5029079;28;20487;-86
2022/03/28 02:31:27;;;;;;;15.68;9.13;;;;;;;8.16;44.13;102529.75;5012867;28;20116;-87
2022/03/28 02:33:53;;;;;;;19.67;10.25;;;;;;;8.20;44.16;102542.63;5012686;28;20384;-86
2022/03/28 02:36:18;;;;;;;18.95;10.20;;;;;;;8.20;44.56;102541.75;5012731;28;20040;-86
2022/03/28 02:38:44;;;;;;;18.80;10.48;;;;;;;8.27;44.11;102561.47;5028732;28;20482;-87
2022/03/28 02:41:09;;;;;;;14.57;10.07;;;;;;;8.15;44.30;102565.00;5012690;28;20044;-86
2022/03/28 02:43:35;;;;;;;19.40;10.30;;;;;;;7.98;45.02;102541.09;5012625;28;20045;-86
2022/03/28 02:46:00;;;;;;;17.85;9.73;;;;;;;8.02;44.47;102559.09;5029151;28;20025;-87
2022/03/28 02:48:26;;;;;;;19.10;10.00;;;;;;;8.04;44.28;102561.66;5012767;28;20136;-86
2022/03/28 02:50:52;;;;;;;18.08;9.85;;;;;;;7.92;44.22;102539.41;5029120;28;20537;-86
2022/03/28 02:53:17;;;;;;;18.98;10.98;;;;;;;8.10;44.75;102559.03;5012417;28;20026;-88
2022/03/28 02:55:43;;;;;;;16.88;10.27;;;;;;;8.04;44.99;102559.06;5029350;28;20053;-87
2022/03/28 02:58:08;;;;;;;17.88;10.68;;;;;;;7.98;44.43;102564.28;5031542;28;20119;-89
2022/03/28 03:00:34;;;;;;;21.88;11.18;;;;;;;8.01;44.97;102570.25;5033338;28;20029;-90
2022/03/28 03:03:00;;;;;;;20.27;11.52;;;;;;;7.97;44.54;102562.59;5016710;28;20033;-88
2022/03/28 03:05:26;;;;;;;20.23;11.52;;;;;;;8.04;44.23;102570.22;5016510;28;20040;-90
2022/03/28 03:07:52;;;;;;;22.35;11.30;;;;;;;7.95;44.39;102570.28;5032566;28;20072;-87
2022/03/28 03:10:17;;;;;;;22.33;10.65;;;;;;;8.05;44.21;102571.94;5016410;28;20060;-91
2022/03/28 03:12:42;;;;;;;25.85;11.48;;;;;;;8.10;44.24;102579.66;5032658;28;20057;-88
2022/03/28 03:15:08;;;;;;;22.05;10.93;;;;;;;8.12;43.94;102587.38;5016265;28;20107;-90
2022/03/28 03:17:37;;;;;;;19.17;8.95;;;;;;;8.18;43.23;102588.19;5032852;28;20057;-90
2022/03/28 03:20:04;;;;;;;18.55;9.40;;;;;;;8.01;43.06;102574.56;5049290;28;20048;-89
2022/03/28 03:22:29;;;;;;;19.95;9.32;;;;;;;7.84;43.31;102597.00;5048834;28;20026;-87
2022/03/28 03:24:55;;;;;;;15.25;8.68;;;;;;;7.68;43.75;102584.25;5032387;28;20038;-90
2022/03/28 03:27:20;;;;;;;15.38;8.75;;;;;;;7.66;43.68;102593.66;5015936;28;20576;-86
2022/03/28 03:29:47;;;;;;;19.25;9.27;;;;;;;7.69;44.06;102609.13;5032309;28;20029;-87
2022/03/28 03:32:13;;;;;;;55.83;13.60;;;;;;;7.62;44.73;102607.44;5009490;28;20029;-86
2022/03/28 03:34:39;;;;;;;17.40;9.18;;;;;;;7.55;44.53;102603.19;5025855;28;20413;-86
2022/03/28 03:37:05;;;;;;;16.52;8.23;;;;;;;7.39;44.38;102588.69;5030875;28;20546;-87
2022/03/28 03:39:30;;;;;;;20.10;9.05;;;;;;;7.41;44.88;102615.28;5031197;28;20156;-85
2022/03/28 03:41:56;;;;;;;16.77;7.95;;;;;;;7.28;45.17;102590.44;5015202;28;20061;-85
2022/03/28 03:44:21;;;;;;;14.80;8.15;;;;;;;7.26;45.16;102607.59;5031296;28;20025;-87
2022/03/28 03:46:47;;;;;;;21.13;8.15;;;;;;;7.05;45.53;102596.50;5031102;28;20563;-86
2022/03/28 03:49:13;;;;;;;15.38;8.40;;;;;;;7.16;45.42;102614.50;5030963;28;20029;-87
2022/03/28 03:51:38;;;;;;;20.17;9.50;;;;;;;7.02;45.52;102599.09;5014402;28;20061;-87
2022/03/28 03:54:04;;;;;;;22.88;11.52;;;;;;;7.08;45.75;102618.78;5031468;28;20029;-87
2022/03/28 03:56:30;;;;;;;18.08;10.60;;;;;;;6.98;45.77;102611.97;5031388;28;20025;-86
2022/03/28 03:58:56;;;;;;;71.00;12.80;;;;;;;7.01;45.69;102633.41;5031068;28;20507;-86
2022/03/28 04:01:22;;;;;;;46.13;12.50;;;;;;;6.98;45.71;102628.28;5047567;28;20021;-86
2022/03/28 04:03:47;;;;;;;102.80;21.90;;;;;;;6.84;45.96;102637.72;5030667;28;20407;-87
2022/03/28 04:06:13;;;;;;;38.08;20.83;;;;;;;6.75;45.87;102619.72;5013477;28;20406;-87
2022/03/28 04:08:38;;;;;;;39.92;16.65;;;;;;;6.85;45.50;102631.72;5030261;28;20065;-87
2022/03/28 04:11:04;;;;;;;39.58;14.60;;;;;;;6.76;45.45;102621.44;5031202;28;20057;-85
2022/03/28 04:13:31;;;;;;;25.08;15.02;;;;;;;6.78;45.76;102641.16;5028415;28;20052;-82
2022/03/28 04:15:56;;;;;;;24.92;15.43;;;;;;;6.64;45.36;102630.03;5013490;28;20022;-91
2022/03/28 04:18:24;;;;;;;22.27;12.75;;;;;;;6.72;45.22;102642.91;5014621;28;20034;-83
2022/03/28 04:20:50;;;;;;;25.25;11.68;;;;;;;6.76;45.56;102636.88;5011445;28;20045;-83
2022/03/28 04:23:15;;;;;;;22.02;12.73;;;;;;;6.63;45.17;102622.31;5030433;28;20387;-85
2022/03/28 04:25:41;;;;;;;26.75;13.15;;;;;;;6.68;45.38;102649.72;5031509;28;20038;-83
2022/03/28 04:28:06;;;;;;;21.60;13.07;;;;;;;6.72;45.64;102653.19;5046142;28;20427;-88
2022/03/28 04:30:32;;;;;;;27.42;13.40;;;;;;;6.38;45.58;102603.47;5046136;28;20072;-85
2022/03/28 04:32:57;;;;;;;25.52;12.38;;;;;;;6.57;45.22;102630.88;5017663;28;20083;-85
2022/03/28 04:35:23;;;;;;;33.42;16.83;;;;;;;6.68;45.20;102644.59;5030058;28;20430;-86
2022/03/28 04:37:49;;;;;;;26.15;14.43;;;;;;;6.69;45.34;102645.47;5031810;28;20116;-92
2022/03/28 04:40:16;;;;;;;26.92;14.65;;;;;;;6.74;45.23;102648.88;5013330;28;20025;-86
2022/03/28 04:42:41;;;;;;;32.35;15.70;;;;;;;6.81;45.33;102645.47;5030037;28;20495;-91
2022/03/28 04:45:07;;;;;;;26.20;15.57;;;;;;;6.61;45.88;102641.19;5031513;28;20107;-90
2022/03/28 04:47:33;;;;;;;23.80;12.38;;;;;;;6.71;46.25;102646.31;5028688;28;20033;-86
2022/03/28 04:49:59;;;;;;;24.92;12.35;;;;;;;6.71;45.71;102639.47;5029984;28;20037;-85
2022/03/28 04:52:25;;;;;;;177.25;85.03;;;;;;;6.77;45.41;102643.72;5014908;28;20032;-90
2022/03/28 04:54:51;;;;;;;25.10;11.80;;;;;;;6.83;44.47;102648.88;5018643;28;20033;-90
2022/03/28 04:57:16;;;;;;;32.78;13.00;;;;;;;6.71;44.81;102644.63;5035143;28;20020;-93
2022/03/28 04:59:42;;;;;;;26.27;10.77;;;;;;;6.55;45.46;102632.59;5013452;28;20033;-85
2022/03/28 05:02:07;;;;;;;20.75;10.65;;;;;;;6.46;45.50;102650.59;5049272;28;20029;-84
2022/03/28 05:04:33;;;;;;;22.83;11.00;;;;;;;6.50;45.78;102657.47;5036192;28;20051;-89
2022/03/28 05:06:59;;;;;;;21.73;10.52;;;;;;;6.51;45.15;102669.47;5028856;28;20084;-91
2022/03/28 05:09:25;;;;;;;24.15;11.32;;;;;;;6.56;44.94;102660.88;5016358;28;20025;-89
2022/03/28 05:11:51;;;;;;;31.42;12.63;;;;;;;6.25;45.42;102633.44;5026067;28;20049;-89
2022/03/28 05:14:18;;;;;;;21.67;11.02;;;;;;;6.42;45.33;102678.03;5043176;28;20040;-87
2022/03/28 05:16:44;;;;;;;20.30;10.57;;;;;;;6.39;44.89;102670.34;5015327;28;20032;-88
2022/03/28 05:19:09;;;;;;;25.88;12.27;;;;;;;6.41;44.51;102663.47;4998574;28;20511;-86
2022/03/28 05:21:35;;;;;;;34.47;13.50;;;;;;;6.38;45.07;102653.16;5019297;28;20039;-92
2022/03/28 05:24:01;;;;;;;22.85;12.40;;;;;;;6.59;44.45;102680.63;5023364;28;20069;-90
2022/03/28 05:26:26;;;;;;;24.52;12.50;;;;;;;6.55;44.49;102648.88;5011140;28;20136;-84
2022/03/28 05:28:52;;;;;;;26.55;12.40;;;;;;;6.68;44.08;102667.75;5024593;28;20025;-85
2022/03/28 05:31:18;;;;;;;29.13;13.43;;;;;;;6.55;43.92;102637.75;5034525;28;20048;-84
2022/03/28 05:33:44;;;;;;;26.35;13.43;;;;;;;6.85;43.77;102673.75;5034285;28;20040;-89
2022/03/28 05:36:09;;;;;;;32.83;14.38;;;;;;;6.89;43.67;102670.31;5030326;28;20026;-87
2022/03/28 05:38:35;;;;;;;30.40;14.70;;;;;;;6.88;43.45;102662.59;5011641;28;20083;-89
2022/03/28 05:41:00;;;;;;;31.80;15.68;;;;;;;6.88;43.52;102636.84;5022010;28;20036;-85
2022/03/28 05:43:26;;;;;;;26.23;15.25;;;;;;;6.88;42.83;102635.16;5047403;28;20037;-83
2022/03/28 05:45:54;;;;;;;23.08;12.13;;;;;;;7.26;42.52;102674.53;5012109;28;20112;-85
2022/03/28 05:48:20;;;;;;;26.30;14.15;;;;;;;7.19;42.67;102653.13;5010899;28;20099;-89
2022/03/28 05:50:46;;;;;;;24.10;13.10;;;;;;;7.12;42.53;102623.09;5029179;28;20483;-82
2022/03/28 05:53:13;;;;;;;24.23;12.35;;;;;;;7.41;42.47;102647.03;5029901;28;20026;-84
2022/03/28 05:55:42;;;;;;;17.30;10.13;;;;;;;7.68;40.89;102673.56;5044250;28;20412;-85
2022/03/28 05:58:09;;;;;;;21.30;10.02;;;;;;;7.62;40.07;102653.81;5018797;28;20028;-90
2022/03/28 06:00:38;;;;;;;20.38;9.93;;;;;;;7.84;39.72;102672.59;5030588;28;20112;-87
2022/03/28 06:03:08;;;;;;;17.65;9.02;;;;;;;7.96;38.96;102680.28;5012895;28;20116;-82
2022/03/28 06:05:33;;;;;;;22.25;10.90;;;;;;;7.99;39.32;102669.94;5022452;28;20022;-88
2022/03/28 06:07:59;;;;;;;19.10;9.82;;;;;;;8.09;38.98;102660.44;5026650;28;20036;-85
2022/03/28 06:10:25;;;;;;;15.65;9.23;;;;;;;8.28;38.64;102677.50;5021380;28;20021;-86
2022/03/28 06:12:50;;;;;;;18.50;7.30;;;;;;;8.33;37.17;102680.91;5043704;28;20046;-93
2022/03/28 06:15:18;;;;;;;15.88;8.00;;;;;;;8.40;38.10;102678.31;5030676;28;20061;-83
2022/03/28 06:17:43;;;;;;;14.88;8.40;;;;;;;8.57;37.94;102677.31;5029394;28;20049;-85
2022/03/28 06:20:11;;;;;;;14.13;8.43;;;;;;;8.71;39.63;102668.59;5003704;28;20541;-87
2022/03/28 06:22:36;;;;;;;18.90;6.65;;;;;;;8.93;35.76;102680.44;5010358;28;20072;-84
2022/03/28 06:25:03;;;;;;;17.02;7.82;;;;;;;9.06;36.13;102679.47;5021609;28;20040;-84
2022/03/28 06:27:29;;;;;;;15.70;7.18;;;;;;;9.02;35.79;102651.97;5045614;28;20438;-88
2022/03/28 06:29:54;;;;;;;12.95;5.88;;;;;;;9.18;33.29;102673.31;5028758;28;20025;-90
2022/03/28 06:32:20;;;;;;;11.82;5.47;;;;;;;9.40;33.58;102664.44;5035894;28;20094;-86
2022/03/28 06:34:48;;;;;;;12.27;5.90;;;;;;;9.59;33.18;102666.81;5033623;28;20124;-88
2022/03/28 06:37:15;;;;;;;12.95;5.72;;;;;;;9.80;32.44;102673.44;5017202;28;20029;-90
2022/03/28 06:39:42;;;;;;;12.30;6.40;;;;;;;9.77;32.90;102658.84;5016822;28;20124;-90
2022/03/28 06:42:08;;;;;;;14.38;6.00;;;;;;;9.85;32.00;102664.75;5035378;28;20029;-85
2022/03/28 06:44:34;;;;;;;12.98;5.93;;;;;;;9.91;32.28;102663.81;5039506;28;20053;-88
2022/03/28 06:47:00;;;;;;;11.43;5.90;;;;;;;10.12;31.79;102673.00;5029559;28;20118;-89
2022/03/28 06:49:25;;;;;;;23.25;5.45;;;;;;;10.03;29.20;102672.28;5033857;28;20022;-92
2022/03/28 06:51:51;;;;;;;16.15;6.85;;;;;;;10.14;28.86;102660.91;5030854;28;20787;-88
2022/03/28 06:54:19;;;;;;;16.88;7.90;;;;;;;10.15;30.18;102660.03;5033380;28;20029;-85
2022/03/28 06:56:45;;;;;;;7.63;4.50;;;;;;;10.28;27.39;102679.69;5032411;28;20542;-89
2022/03/28 06:59:11;;;;;;;9.27;4.20;;;;;;;10.24;28.34;102663.38;5045153;28;20491;-85
2022/03/28 07:01:36;;;;;;;14.10;4.78;;;;;;;10.35;27.46;102668.38;5031599;28;20036;-85
2022/03/28 07:04:03;;;;;;;10.00;4.47;;;;;;;10.49;27.91;102675.91;5053403;28;20030;-85
2022/03/28 07:06:29;;;;;;;10.57;4.07;;;;;;;10.45;27.62;102667.38;5016691;28;20038;-90
2022/03/28 07:08:56;;;;;;;12.30;4.25;;;;;;;10.69;27.76;102673.00;5046287;28;20083;-88
2022/03/28 07:11:21;;;;;;;11.25;4.32;;;;;;;10.76;27.70;102669.44;5027925;28;20030;-88
2022/03/28 07:13:47;;;;;;;10.35;4.80;;;;;;;10.66;27.69;102652.34;5015483;28;20030;-87
2022/03/28 07:16:12;;;;;;;18.23;4.20;;;;;;;10.79;26.61;102665.06;5031317;28;20044;-90
2022/03/28 07:18:38;;;;;;;14.07;4.43;;;;;;;10.80;27.77;102655.53;5020242;28;20029;-90
2022/03/28 07:21:04;;;;;;;14.75;4.28;;;;;;;11.07;27.60;102649.88;5028002;28;20025;-88
2022/03/28 07:23:30;;;;;;;10.57;4.10;;;;;;;11.12;26.12;102649.81;5034586;28;20036;-86
2022/03/28 07:25:56;;;;;;;10.27;3.90;;;;;;;11.11;25.21;102646.38;5032994;28;20431;-88
2022/03/28 07:28:22;;;;;;;9.68;3.60;;;;;;;11.13;24.12;102659.28;5011331;28;20084;-91
2022/03/28 07:30:48;;;;;;;10.35;3.80;;;;;;;10.90;24.34;102636.38;5019871;28;20041;-84
2022/03/28 07:33:13;;;;;;;8.65;3.80;;;;;;;11.11;24.15;102654.13;5014600;28;20030;-82
2022/03/28 07:35:39;;;;;;;10.32;4.10;;;;;;;11.10;25.27;102648.97;5014845;28;20125;-86
2022/03/28 07:38:09;;;;;;;7.72;4.25;;;;;;;11.25;24.28;102656.44;5013324;28;20384;-87
2022/03/28 07:40:36;;;;;;;12.70;4.10;;;;;;;11.37;23.83;102652.75;5029156;28;20068;-91
2022/03/28 07:43:02;;;;;;;14.75;7.90;;;;;;;11.19;23.25;102603.00;4996896;28;20137;-88
2022/03/28 07:45:28;;;;;;;12.05;3.80;;;;;;;11.38;23.96;102646.69;5034606;28;20051;-88
2022/03/28 07:47:53;;;;;;;9.35;4.28;;;;;;;11.49;23.61;102652.50;5068204;28;20033;-88
2022/03/28 07:50:19;;;;;;;10.30;4.10;;;;;;;11.42;24.02;102614.66;5037396;28;20033;-83
2022/03/28 07:52:45;;;;;;;15.80;6.43;;;;;;;11.66;24.89;102640.03;5035407;28;20056;-92
2022/03/28 07:55:12;;;;;;;11.27;4.20;;;;;;;11.76;23.26;102635.50;5032185;28;20033;-85
2022/03/28 07:57:37;;;;;;;11.38;4.45;;;;;;;11.63;24.00;102641.88;5014767;28;20088;-85
2022/03/28 08:00:05;;;;;;;10.38;3.60;;;;;;;11.75;22.97;102615.66;5016796;28;20053;-86
2022/03/28 08:02:31;;;;;;;7.90;4.13;;;;;;;12.04;23.62;102626.25;5031164;28;20033;-86
2022/03/28 08:04:57;;;;;;;13.23;4.53;;;;;;;12.06;23.42;102623.63;5030085;28;20088;-86
2022/03/28 08:07:22;;;;;;;13.73;4.18;;;;;;;12.16;23.06;102619.06;5028943;28;20041;-85
2022/03/28 08:09:48;;;;;;;9.23;4.70;;;;;;;12.11;23.28;102621.78;5024361;28;20052;-90
2022/03/28 08:12:13;;;;;;;13.65;4.15;;;;;;;12.10;22.95;102612.31;5012755;28;20156;-88
2022/03/28 08:14:39;;;;;;;14.70;4.22;;;;;;;12.11;23.42;102611.41;4990869;28;20108;-90
2022/03/28 08:19:29;;;;;;;9.55;4.38;;;;;;;12.55;24.38;102612.91;5083161;27;20133;-90
2022/03/28 08:21:54;;;;;;;13.75;4.78;;;;;;;12.62;23.00;102613.59;5042112;28;20045;-84
2022/03/28 08:24:20;;;;;;;10.93;4.35;;;;;;;12.61;22.30;102614.50;5076466;28;20024;-90
2022/03/28 08:26:46;;;;;;;19.40;4.80;;;;;;;12.69;22.17;102609.97;5055756;28;20110;-86
2022/03/28 08:29:12;;;;;;;11.30;4.50;;;;;;;12.73;22.39;102600.34;5057961;28;20028;-88
2022/03/28 08:31:38;;;;;;;12.07;4.80;;;;;;;12.93;25.15;102603.25;5032536;28;20494;-91
2022/03/28 08:34:03;;;;;;;11.13;4.28;;;;;;;12.97;22.57;102575.44;5032306;28;20029;-87
2022/03/28 08:36:29;;;;;;;7.70;3.95;;;;;;;12.81;21.75;102588.84;5065683;28;20414;-88
2022/03/28 08:38:54;;;;;;;10.32;4.00;;;;;;;12.96;23.51;102597.09;5067454;28;20508;-92
2022/03/28 08:41:20;;;;;;;9.65;5.00;;;;;;;13.03;22.63;102575.25;5044982;28;20874;-91
2022/03/28 08:43:46;;;;;;;10.15;4.45;;;;;;;13.23;23.26;102575.56;5047860;28;20495;-89
2022/03/28 08:46:11;;;;;;;15.23;4.43;;;;;;;13.28;22.54;102588.47;5048473;28;20035;-88
2022/03/28 08:48:41;;;;;;;14.00;4.43;;;;;;;13.49;22.95;102593.03;5048997;28;20060;-84
2022/03/28 08:51:10;;;;;;;11.70;4.55;;;;;;;13.58;22.19;102589.28;5065362;28;20017;-88
2022/03/28 08:53:36;;;;;;;10.88;3.95;;;;;;;13.60;22.87;102584.91;5066885;28;20433;-84
2022/03/28 08:56:02;;;;;;;11.07;4.13;;;;;;;13.65;21.20;102569.97;5049798;28;20035;-88
2022/03/28 08:58:27;;;;;;;10.02;4.13;;;;;;;13.64;22.77;102570.88;5031145;28;20482;-88
2022/03/28 09:00:53;;;;;;;13.60;4.35;;;;;;;13.59;22.78;102562.38;5047855;28;20029;-85
2022/03/28 09:03:19;;;;;;;10.00;4.40;;;;;;;13.66;21.58;102564.72;5039213;28;20116;-88
2022/03/28 09:05:47;;;;;;;10.07;4.63;;;;;;;13.68;22.71;102568.16;5073803;28;20028;-88
2022/03/28 09:08:13;;;;;;;9.70;4.60;;;;;;;13.95;23.36;102550.81;5061086;28;20421;-83
2022/03/28 09:10:38;;;;;;;8.70;5.25;;;;;;;14.30;24.00;102557.44;5057477;28;20032;-88
2022/03/28 09:13:11;;;;;;;10.75;4.10;;;;;;;14.40;23.79;102552.78;5077862;28;20036;-89
2022/03/28 09:15:57;;;;;;;;;;;;;;;14.35;22.24;102559.88;5085497;28;20028;-86
2022/03/28 09:18:32;;;;;;;8.27;4.32;;;;;;;14.25;22.86;102553.28;5069813;28;20271;-90
2022/03/28 09:21:03;;;;;;;11.30;4.32;;;;;;;14.30;22.37;102540.97;5063947;28;20037;-87
2022/03/28 09:23:42;;;;;;;13.00;5.72;;;;;;;14.28;21.96;102527.19;5049178;28;20483;-84
2022/03/28 09:26:23;;;;;;;10.30;4.45;;;;;;;14.45;22.86;102537.88;5033092;28;20032;-85
2022/03/28 09:28:58;;;;;;;8.52;4.32;;;;;;;14.45;21.63;102518.78;5044683;28;20031;-86
2022/03/28 09:31:38;;;;;;;11.18;5.30;;;;;;;14.75;23.14;102509.91;5036277;28;20021;-88
2022/03/28 09:34:15;;;;;;;12.38;4.85;;;;;;;14.88;22.31;102538.97;5031080;28;20033;-94
2022/03/28 09:36:49;;;;;;;8.82;4.50;;;;;;;14.90;21.81;102529.31;5069967;28;20036;-91
2022/03/28 09:39:24;;;;;;;14.13;4.10;;;;;;;14.64;21.65;102510.28;5035066;28;20489;-86
2022/03/28 09:42:11;;;;;;;14.38;4.30;;;;;;;14.66;21.69;102527.63;5053183;28;20545;-87
2022/03/28 09:44:51;;;;;;;12.63;4.25;;;;;;;14.58;22.23;102526.13;5030601;28;20033;-89
2022/03/28 09:47:21;;;;;;;10.82;4.60;;;;;;;14.64;21.66;102515.47;5018519;28;20028;-89
2022/03/28 09:49:49;;;;;;;8.63;4.30;;;;;;;14.52;21.50;102510.72;5013993;28;20400;-86
2022/03/28 09:52:19;;;;;;;12.68;4.90;;;;;;;14.85;22.49;102502.59;5031001;28;20065;-85
2022/03/28 09:54:51;;;;;;;10.65;4.57;;;;;;;15.00;22.57;102502.00;5052379;28;20713;-88
2022/03/28 09:57:35;;;;;;;14.38;4.53;;;;;;;15.25;21.69;102481.09;5050896;28;20118;-85
2022/03/28 10:00:09;;;;;;;14.77;4.85;;;;;;;15.32;23.07;102485.13;5017717;28;20061;-86
2022/03/28 10:02:35;;;;;;;13.75;4.55;;;;;;;15.61;22.35;102489.22;5051629;28;20059;-91
2022/03/28 10:05:01;;;;;;;11.38;4.85;;;;;;;15.49;20.91;102468.81;5034431;28;20405;-85
2022/03/28 10:07:26;;;;;;;12.25;4.97;;;;;;;15.62;21.48;102475.25;5034388;28;20045;-86
2022/03/28 10:09:53;;;;;;;11.25;4.90;;;;;;;15.69;21.96;102466.28;5051052;28;20056;-83
2022/03/28 10:12:19;;;;;;;14.60;4.75;;;;;;;15.72;21.46;102450.50;5050325;28;20041;-86
2022/03/28 10:14:48;;;;;;;13.32;4.57;;;;;;;15.76;21.65;102451.22;5049904;28;20032;-86
2022/03/28 10:17:14;;;;;;;9.65;4.63;;;;;;;15.81;21.98;102441.44;5029929;28;20486;-91
2022/03/28 10:19:39;;;;;;;15.27;4.57;;;;;;;15.97;21.69;102433.81;5028802;28;20056;-88
2022/03/28 10:22:14;;;;;;;13.23;4.80;;;;;;;16.06;21.56;102444.72;5040743;28;20028;-83
2022/03/28 10:24:40;;;;;;;10.98;4.70;;;;;;;16.18;22.49;102432.03;5029910;28;20029;-89
2022/03/28 10:27:05;;;;;;;12.48;5.15;;;;;;;16.18;21.32;102421.59;5018101;28;20025;-86
2022/03/28 10:29:38;;;;;;;11.48;4.93;;;;;;;16.31;20.43;102423.56;5050968;28;20029;-93
2022/03/28 10:32:09;;;;;;;10.82;5.25;;;;;;;16.51;21.15;102425.28;5034506;28;20063;-88
2022/03/28 10:35:01;;;;;;;9.25;5.07;;;;;;;16.62;21.58;102417.84;5032708;28;20033;-88
2022/03/28 10:37:34;;;;;;;16.90;4.93;;;;;;;16.80;20.86;102416.16;5049297;28;20025;-86
2022/03/28 10:40:11;;;;;;;10.63;4.88;;;;;;;16.76;20.94;102403.31;5032846;28;20068;-87
2022/03/28 10:42:37;;;;;;;12.98;4.78;;;;;;;16.78;20.38;102381.41;5052897;28;20033;-85
2022/03/28 10:45:05;;;;;;;9.52;4.80;;;;;;;16.88;21.47;102382.66;5032225;28;20036;-90
2022/03/28 10:47:44;;;;;;;12.00;4.72;;;;;;;16.84;20.91;102378.50;5032318;28;20036;-91
2022/03/28 10:50:16;;;;;;;10.77;4.85;;;;;;;16.93;21.23;102374.63;5016333;28;20033;-90
2022/03/28 10:53:03;;;;;;;11.27;4.70;;;;;;;16.87;20.91;102370.50;5014943;28;20028;-85
2022/03/28 10:55:37;;;;;;;8.55;4.75;;;;;;;16.88;20.74;102345.22;5013995;28;20029;-89
2022/03/28 10:58:13;;;;;;;11.30;5.35;;;;;;;16.85;20.44;102325.31;5046996;28;20522;-87
2022/03/28 11:00:39;;;;;;;12.45;4.90;;;;;;;17.10;20.11;102334.56;5047934;28;20037;-88
2022/03/28 11:03:05;;;;;;;11.77;4.63;;;;;;;17.31;20.63;102351.81;5048456;28;20025;-91
2022/03/28 11:05:31;;;;;;;10.70;4.70;;;;;;;17.22;20.20;102348.81;5046735;28;20021;-91
2022/03/28 11:08:03;;;;;;;9.20;4.57;;;;;;;17.16;20.17;102331.66;5034111;28;20037;-91
2022/03/28 11:10:28;;;;;;;;;;;;;;;17.36;21.23;102341.97;5044438;28;20052;-86
2022/03/28 11:12:54;;;;;;;11.23;4.75;;;;;;;17.31;19.94;102319.59;5027745;28;19963;-86
2022/03/28 11:15:21;;;;;;;10.50;4.93;;;;;;;17.49;20.70;102316.84;5014522;28;20037;-87
2022/03/28 11:17:57;;;;;;;15.80;5.03;;;;;;;17.63;21.21;102286.53;5031217;28;20116;-85
2022/03/28 11:20:28;;;;;;;9.70;4.80;;;;;;;17.71;20.05;102293.09;5047331;28;20460;-85
2022/03/28 11:23:10;;;;;;;7.93;4.50;;;;;;;17.59;20.37;102293.69;5032118;28;20057;-87